DucheSS Of Scandinavia — OUZI2 — position and weather

sailwx.info

Track history (hours):
 
Tides and Currents Weather Stations Pressure Air Temp Water Temp Dewpoint Dewpoint Depression Visibility Wind Speed Wind Dir Waves Ship Positions

DucheSS Of Scandinavia

Operator: DFDS A/S

Last reported at 2014-Jul-24 19:32 UTC. Time now 2014-Jul-24 20:09 UTC.
Position N 59°06' E 010°14'.

Length 134 m; draft 5.2 m.

Type: Passenger vessel. MMSI: 219002929.

Date/timePositionNaut miles runAvg speedWind from/ knotsBaromVisibWave heightAir tempDewpointWater temp
2014-Jul-24 19:32N 59°06' E 010°14'0 0.0
2014-Jul-24 18:33N 59°06' E 010°14'1 1.2
2014-Jul-24 17:33N 59°07' E 010°14'2 1.9
2014-Jul-24 16:33N 59°05' E 010°14'1414.3
2014-Jul-24 15:33N 59°01' E 010°41'1515.4
2014-Jul-24 14:33N 58°56' E 011°09'1 0.7
2014-Jul-24 13:33N 58°56' E 011°10'1212.2
2014-Jul-24 12:34N 59°01' E 010°49'1716.6
2014-Jul-24 11:33N 59°01' E 010°17'6 6.3
2014-Jul-24 10:33N 59°08' E 010°14'5 4.7
2014-Jul-24 09:33N 59°03' E 010°15'1716.7
2014-Jul-24 08:33N 59°02' E 010°48'1312.9
2014-Jul-24 07:33N 58°56' E 011°10'8 8.5
2014-Jul-24 06:33N 59°00' E 010°56'1616.5
2014-Jul-24 05:33N 59°01' E 010°24'9 8.6
2014-Jul-24 04:33N 59°08' E 010°14'1 1.4
2014-Jul-24 03:33N 59°06' E 010°14'0 0.1
2014-Jul-24 02:33N 59°06' E 010°14'0 0.0
2014-Jul-24 01:33N 59°06' E 010°14'0 0.0
2014-Jul-24 00:33N 59°06' E 010°14'0 0.0
2014-Jul-23 23:33N 59°06' E 010°14'0 0.0
2014-Jul-23 22:33N 59°06' E 010°14'0 0.0
2014-Jul-23 21:33N 59°06' E 010°14'0 0.0
2014-Jul-23 20:33N 59°06' E 010°14'0 0.0
2014-Jul-23 19:33N 59°06' E 010°14'0 0.0
2014-Jul-23 18:33N 59°06' E 010°14'1 1.4
2014-Jul-23 17:33N 59°08' E 010°14'2 2.3
2014-Jul-23 16:33N 59°05' E 010°14'1414.4
2014-Jul-23 15:33N 59°02' E 010°42'1515.2
2014-Jul-23 14:32N 58°56' E 011°09'0 0.3
2014-Jul-23 13:33N 58°56' E 011°10'1212.1
2014-Jul-23 12:34N 59°01' E 010°49'1716.7
2014-Jul-23 11:34N 59°01' E 010°17'6 6.4
2014-Jul-23 10:33N 59°08' E 010°14'6 6.0
2014-Jul-23 09:33N 59°02' E 010°16'1717.4
2014-Jul-23 08:33N 59°01' E 010°50'1211.7
2014-Jul-23 07:33N 58°56' E 011°10'7 7.4
2014-Jul-23 06:33N 58°60' E 010°58'1716.6
2014-Jul-23 05:33N 59°01' E 010°26'9 9.3
2014-Jul-23 04:33N 59°08' E 010°14'1 1.4
2014-Jul-23 03:34N 59°06' E 010°14'0 0.1
2014-Jul-23 02:33N 59°06' E 010°14'0 0.0
2014-Jul-23 01:33N 59°06' E 010°14'0 0.0
2014-Jul-23 00:33N 59°06' E 010°14'0 0.0
2014-Jul-22 23:33N 59°06' E 010°14'0 0.0
2014-Jul-22 22:33N 59°06' E 010°14'0 0.0
2014-Jul-22 21:33N 59°06' E 010°14'0 0.0
2014-Jul-22 20:33N 59°06' E 010°14'0 0.0
2014-Jul-22 19:33N 59°06' E 010°14'0 0.0
2014-Jul-22 18:33N 59°06' E 010°14'1 0.8
2014-Jul-22 17:33N 59°07' E 010°14'2 2.0
2014-Jul-22 16:33N 59°05' E 010°15'1514.6
2014-Jul-22 15:33N 59°01' E 010°42'1515.0
2014-Jul-22 14:32N 58°56' E 011°09'0 0.4
2014-Jul-22 13:33N 58°56' E 011°10'1111.4
2014-Jul-22 12:33N 59°01' E 010°50'1717.2
2014-Jul-22 11:33N 59°01' E 010°17'6 6.3
2014-Jul-22 10:33N 59°08' E 010°14'6 6.2
2014-Jul-22 09:33N 59°02' E 010°17'1717.3
2014-Jul-22 08:33N 59°01' E 010°51'1111.5
2014-Jul-22 07:33N 58°56' E 011°10'8 8.1
2014-Jul-22 06:33N 59°00' E 010°57'1716.9
2014-Jul-22 05:33N 59°01' E 010°24'9 8.6
2014-Jul-22 04:33N 59°08' E 010°14'1 1.4
2014-Jul-22 03:33N 59°06' E 010°14'0 0.1
2014-Jul-22 02:33N 59°06' E 010°14'0 0.0
2014-Jul-22 01:33N 59°06' E 010°14'0 0.0
2014-Jul-22 00:33N 59°06' E 010°14'0 0.0
2014-Jul-21 23:33N 59°06' E 010°14'0 0.0
2014-Jul-21 22:33N 59°06' E 010°14'0 0.0
2014-Jul-21 21:33N 59°06' E 010°14'0 0.0
2014-Jul-21 20:34N 59°06' E 010°14'0 0.0
2014-Jul-21 20:18N 59°06' E 010°14'0 0.0
2014-Jul-21 19:33N 59°06' E 010°14'0 0.0
2014-Jul-21 18:33N 59°06' E 010°14'1 1.2
2014-Jul-21 17:33N 59°07' E 010°14'2 2.1
2014-Jul-21 16:33N 59°05' E 010°14'1414.0
2014-Jul-21 15:33N 59°01' E 010°41'1615.3
2014-Jul-21 14:32N 58°56' E 011°09'1 0.7
2014-Jul-21 13:33N 58°56' E 011°10'1312.8
2014-Jul-21 12:33N 59°02' E 010°48'1716.6
2014-Jul-21 11:33N 59°02' E 010°16'6 5.7
2014-Jul-21 10:33N 59°08' E 010°14'6 6.1
2014-Jul-21 09:33N 59°02' E 010°16'1717.4
2014-Jul-21 08:33N 59°01' E 010°50'1211.5
2014-Jul-21 07:33N 58°56' E 011°10'9 8.6
2014-Jul-21 06:33N 59°00' E 010°56'1716.7
2014-Jul-21 05:33N 59°01' E 010°23'8 8.5
2014-Jul-21 04:33N 59°08' E 010°14'1 1.4
2014-Jul-21 03:33N 59°06' E 010°14'0 0.1
2014-Jul-21 02:33N 59°06' E 010°14'0 0.0
2014-Jul-21 01:33N 59°06' E 010°14'0 0.0
2014-Jul-21 00:33N 59°06' E 010°14'0 0.0
2014-Jul-20 23:33N 59°06' E 010°14'0 0.0
2014-Jul-20 22:33N 59°06' E 010°14'0 0.0
2014-Jul-20 21:33N 59°06' E 010°14'0 0.0
2014-Jul-20 20:33N 59°06' E 010°14'0 0.0
2014-Jul-20 19:33N 59°06' E 010°14'0 0.0
2014-Jul-20 18:33N 59°06' E 010°14'1 1.1
2014-Jul-20 17:31N 59°07' E 010°14'2 1.6
2014-Jul-20 16:33N 59°06' E 010°14'1413.9
2014-Jul-20 15:33N 59°01' E 010°40'1615.6
2014-Jul-20 14:31N 58°56' E 011°10'0 0.2
2014-Jul-20 13:33N 58°56' E 011°10'1313.2
2014-Jul-20 12:33N 59°02' E 010°47'1616.5
2014-Jul-20 11:33N 59°02' E 010°15'6 5.5
2014-Jul-20 10:33N 59°08' E 010°14'6 6.0
2014-Jul-20 09:33N 59°02' E 010°16'1717.0
2014-Jul-20 08:33N 59°01' E 010°49'1212.1
2014-Jul-20 07:33N 58°56' E 011°10'8 8.4
2014-Jul-20 06:33N 59°00' E 010°56'1716.8
2014-Jul-20 05:33N 59°01' E 010°24'9 8.6
2014-Jul-20 04:33N 59°08' E 010°14'1 1.4
2014-Jul-20 03:33N 59°06' E 010°14'0 0.1
2014-Jul-20 02:33N 59°06' E 010°14'0 0.0
2014-Jul-20 01:33N 59°06' E 010°14'0 0.0
2014-Jul-20 00:33N 59°06' E 010°14'0 0.0
2014-Jul-19 23:33N 59°06' E 010°14'0 0.0
2014-Jul-19 22:33N 59°06' E 010°14'0 0.0
2014-Jul-19 21:33N 59°06' E 010°14'0 0.0
2014-Jul-19 20:33N 59°06' E 010°14'0 0.0
2014-Jul-19 19:33N 59°06' E 010°14'0 0.0
2014-Jul-19 18:33N 59°06' E 010°14'1 1.2
2014-Jul-19 17:33N 59°07' E 010°14'5 4.1
2014-Jul-19 16:23N 59°03' E 010°15'1315.8
2014-Jul-19 15:33N 59°01' E 010°41'1615.3
2014-Jul-19 14:31N 58°56' E 011°10'0 0.3
2014-Jul-19 13:33N 58°56' E 011°10'1211.7
2014-Jul-19 12:33N 59°01' E 010°50'1717.3
2014-Jul-19 11:33N 59°02' E 010°16'6 6.1
2014-Jul-19 10:33N 59°08' E 010°14'6 6.4
2014-Jul-19 09:33N 59°02' E 010°18'1716.7
2014-Jul-19 08:33N 59°01' E 010°50'1211.6
2014-Jul-19 07:33N 58°56' E 011°10'8 8.4
2014-Jul-19 06:33N 59°00' E 010°56'1717.4
2014-Jul-19 05:33N 59°01' E 010°22'8 8.1
2014-Jul-19 04:33N 59°08' E 010°14'1 1.4
2014-Jul-19 03:33N 59°06' E 010°14'0 0.1
2014-Jul-19 02:33N 59°06' E 010°14'0 0.0
2014-Jul-19 01:33N 59°06' E 010°14'0 0.0
2014-Jul-19 00:33N 59°06' E 010°14'0 0.0
2014-Jul-18 23:33N 59°06' E 010°14'0 0.0
2014-Jul-18 22:20N 59°06' E 010°14'0 0.0
2014-Jul-18 21:33N 59°06' E 010°14'0 0.0
2014-Jul-18 20:33N 59°06' E 010°14'0 0.0
2014-Jul-18 19:33N 59°06' E 010°14'0 0.0
2014-Jul-18 18:33N 59°06' E 010°14'1 1.3
2014-Jul-18 17:33N 59°07' E 010°14'16 7.9
2014-Jul-18 15:29N 59°02' E 010°43'2 0.6
2014-Jul-18 12:23N 59°02' E 010°47'1616.9
2014-Jul-18 11:25N 59°02' E 010°15'5 6.2
2014-Jul-18 10:33N 59°08' E 010°14'5 4.8
2014-Jul-18 09:34N 59°03' E 010°15'1716.7
2014-Jul-18 08:33N 59°02' E 010°48'1312.8
2014-Jul-18 07:33N 58°56' E 011°10'8 8.4
2014-Jul-18 06:33N 59°00' E 010°56'1717.0
2014-Jul-18 05:33N 59°01' E 010°23'8 8.4
2014-Jul-18 04:33N 59°08' E 010°14'1 1.4
2014-Jul-18 03:33N 59°06' E 010°14'0 0.1
2014-Jul-18 02:34N 59°06' E 010°14'0 0.0
2014-Jul-18 01:33N 59°06' E 010°14'0 0.0
2014-Jul-18 00:33N 59°06' E 010°14'0 0.0
2014-Jul-17 23:33N 59°06' E 010°14'0 0.0
2014-Jul-17 22:33N 59°06' E 010°14'0 0.0
2014-Jul-17 21:33N 59°06' E 010°14'0 0.0
2014-Jul-17 20:33N 59°06' E 010°14'0 0.0
2014-Jul-17 19:34N 59°06' E 010°14'0 0.0
2014-Jul-17 18:34N 59°06' E 010°14'1 1.1
2014-Jul-17 17:30N 59°07' E 010°14'2 2.6
2014-Jul-17 16:33N 59°05' E 010°15'1414.3
2014-Jul-17 15:33N 59°02' E 010°41'1615.1
2014-Jul-17 14:32N 58°56' E 011°10'0 0.2
2014-Jul-17 13:34N 58°56' E 011°10'1313.3
2014-Jul-17 12:33N 59°02' E 010°47'1616.4
2014-Jul-17 11:33N 59°03' E 010°15'5 5.0
2014-Jul-17 10:33N 59°08' E 010°14'6 5.9
2014-Jul-17 09:33N 59°02' E 010°16'1716.8
2014-Jul-17 08:33N 59°02' E 010°48'1312.6
2014-Jul-17 07:33N 58°56' E 011°10'8 7.9
2014-Jul-17 06:33N 59°00' E 010°57'1716.9
2014-Jul-17 05:33N 59°01' E 010°24'9 8.8
2014-Jul-17 04:33N 59°08' E 010°14'1 1.4
2014-Jul-17 03:33N 59°06' E 010°14'0 0.0
2014-Jul-17 02:33N 59°06' E 010°14'0 0.0
2014-Jul-17 01:33N 59°06' E 010°14'0 0.0
2014-Jul-17 00:33N 59°06' E 010°14'0 0.0
2014-Jul-16 23:33N 59°06' E 010°14'0 0.0
2014-Jul-16 22:32N 59°06' E 010°14'0 0.0
2014-Jul-16 21:31N 59°06' E 010°14'0 0.0
2014-Jul-16 20:33N 59°06' E 010°14'0 0.0
2014-Jul-16 19:33N 59°06' E 010°14'0 0.0
2014-Jul-16 18:27N 59°06' E 010°14'1 1.5
2014-Jul-16 17:32N 59°08' E 010°14'3 2.6
2014-Jul-16 16:33N 59°05' E 010°15'1414.4
2014-Jul-16 15:33N 59°02' E 010°42'1614.3
2014-Jul-16 14:28N 58°56' E 011°10'3 2.7
2014-Jul-16 13:21N 58°56' E 011°04'1316.0
2014-Jul-16 12:33N 59°01' E 010°42'1413.7
2014-Jul-16 11:30N 59°05' E 010°15'3 2.9
2014-Jul-16 10:33N 59°08' E 010°14'6 6.3
2014-Jul-16 09:33N 59°02' E 010°17'1717.2
2014-Jul-16 08:33N 59°01' E 010°51'1111.3
2014-Jul-16 07:33N 58°56' E 011°10'10 9.6
2014-Jul-16 06:33N 59°01' E 010°54'1616.5
2014-Jul-16 05:33N 59°01' E 010°22'8 8.2
2014-Jul-16 04:34N 59°08' E 010°14'1 1.4
2014-Jul-16 03:33N 59°06' E 010°14'0 0.1
2014-Jul-16 02:33N 59°06' E 010°14'0 0.0
2014-Jul-16 01:33N 59°06' E 010°14'0 0.0
2014-Jul-16 00:33N 59°06' E 010°14'0 0.0
2014-Jul-15 23:33N 59°06' E 010°14'0 0.0
2014-Jul-15 22:33N 59°06' E 010°14'0 0.0
2014-Jul-15 21:33N 59°06' E 010°14'0 0.0
2014-Jul-15 20:33N 59°06' E 010°14'0 0.0
2014-Jul-15 19:33N 59°06' E 010°14'0 0.0
2014-Jul-15 18:33N 59°06' E 010°14'1 1.3
2014-Jul-15 17:30N 59°08' E 010°14'4 4.1
2014-Jul-15 16:33N 59°04' E 010°15'1514.9
2014-Jul-15 15:33N 59°02' E 010°44'1514.3
2014-Jul-15 14:31N 58°56' E 011°10'1 0.7
2014-Jul-15 13:31N 58°56' E 011°09'1515.9
2014-Jul-15 12:33N 59°01' E 010°41'1514.3
2014-Jul-15 11:31N 59°06' E 010°14'1 1.4
2014-Jul-15 10:33N 59°08' E 010°14'8 7.7
2014-Jul-15 09:33N 59°01' E 010°22'1514.9
2014-Jul-15 08:33N 59°01' E 010°51'1111.4
2014-Jul-15 07:33N 58°56' E 011°10'7 7.3
2014-Jul-15 06:33N 58°60' E 010°58'1817.7
2014-Jul-15 05:33N 59°01' E 010°24'9 8.6
2014-Jul-15 04:33N 59°08' E 010°14'1 1.4
2014-Jul-15 03:33N 59°06' E 010°14'0 0.0
2014-Jul-15 01:26N 59°06' E 010°14'0 0.0
2014-Jul-15 00:09N 59°06' E 010°14'0 0.0
2014-Jul-14 23:27N 59°06' E 010°14'0 0.0
2014-Jul-14 22:28N 59°06' E 010°14'0 0.0
2014-Jul-14 21:11N 59°06' E 010°14'0 0.0
2014-Jul-14 20:32N 59°06' E 010°14'  
Track history (hours):
 
Tides and Currents Weather Stations Pressure Air Temp Water Temp Dewpoint Dewpoint Depression Visibility Wind Speed Wind Dir Waves Ship Positions

DucheSS Of Scandinavia

Operator: DFDS A/S

Last reported at 2014-Jul-24 19:32 UTC. Time now 2014-Jul-24 20:09 UTC.
Position N 59°06' E 010°14'.

Length 134 m; draft 5.2 m.

Type: Passenger vessel. MMSI: 219002929.

Date/timePositionNaut miles runAvg speedWind from/ knotsBaromVisibWave heightAir tempDewpointWater temp
2014-Jul-24 19:32N 59°06' E 010°14'0 0.0
2014-Jul-24 18:33N 59°06' E 010°14'1 1.2
2014-Jul-24 17:33N 59°07' E 010°14'2 1.9
2014-Jul-24 16:33N 59°05' E 010°14'1414.3
2014-Jul-24 15:33N 59°01' E 010°41'1515.4
2014-Jul-24 14:33N 58°56' E 011°09'1 0.7
2014-Jul-24 13:33N 58°56' E 011°10'1212.2
2014-Jul-24 12:34N 59°01' E 010°49'1716.6
2014-Jul-24 11:33N 59°01' E 010°17'6 6.3
2014-Jul-24 10:33N 59°08' E 010°14'5 4.7
2014-Jul-24 09:33N 59°03' E 010°15'1716.7
2014-Jul-24 08:33N 59°02' E 010°48'1312.9
2014-Jul-24 07:33N 58°56' E 011°10'8 8.5
2014-Jul-24 06:33N 59°00' E 010°56'1616.5
2014-Jul-24 05:33N 59°01' E 010°24'9 8.6
2014-Jul-24 04:33N 59°08' E 010°14'1 1.4
2014-Jul-24 03:33N 59°06' E 010°14'0 0.1
2014-Jul-24 02:33N 59°06' E 010°14'0 0.0
2014-Jul-24 01:33N 59°06' E 010°14'0 0.0
2014-Jul-24 00:33N 59°06' E 010°14'0 0.0
2014-Jul-23 23:33N 59°06' E 010°14'0 0.0
2014-Jul-23 22:33N 59°06' E 010°14'0 0.0
2014-Jul-23 21:33N 59°06' E 010°14'0 0.0
2014-Jul-23 20:33N 59°06' E 010°14'0 0.0
2014-Jul-23 19:33N 59°06' E 010°14'0 0.0
2014-Jul-23 18:33N 59°06' E 010°14'1 1.4
2014-Jul-23 17:33N 59°08' E 010°14'2 2.3
2014-Jul-23 16:33N 59°05' E 010°14'1414.4
2014-Jul-23 15:33N 59°02' E 010°42'1515.2
2014-Jul-23 14:32N 58°56' E 011°09'0 0.3
2014-Jul-23 13:33N 58°56' E 011°10'1212.1
2014-Jul-23 12:34N 59°01' E 010°49'1716.7
2014-Jul-23 11:34N 59°01' E 010°17'6 6.4
2014-Jul-23 10:33N 59°08' E 010°14'6 6.0
2014-Jul-23 09:33N 59°02' E 010°16'1717.4
2014-Jul-23 08:33N 59°01' E 010°50'1211.7
2014-Jul-23 07:33N 58°56' E 011°10'7 7.4
2014-Jul-23 06:33N 58°60' E 010°58'1716.6
2014-Jul-23 05:33N 59°01' E 010°26'9 9.3
2014-Jul-23 04:33N 59°08' E 010°14'1 1.4
2014-Jul-23 03:34N 59°06' E 010°14'0 0.1
2014-Jul-23 02:33N 59°06' E 010°14'0 0.0
2014-Jul-23 01:33N 59°06' E 010°14'0 0.0
2014-Jul-23 00:33N 59°06' E 010°14'0 0.0
2014-Jul-22 23:33N 59°06' E 010°14'0 0.0
2014-Jul-22 22:33N 59°06' E 010°14'0 0.0
2014-Jul-22 21:33N 59°06' E 010°14'0 0.0
2014-Jul-22 20:33N 59°06' E 010°14'0 0.0
2014-Jul-22 19:33N 59°06' E 010°14'0 0.0
2014-Jul-22 18:33N 59°06' E 010°14'1 0.8
2014-Jul-22 17:33N 59°07' E 010°14'2 2.0
2014-Jul-22 16:33N 59°05' E 010°15'1514.6
2014-Jul-22 15:33N 59°01' E 010°42'1515.0
2014-Jul-22 14:32N 58°56' E 011°09'0 0.4
2014-Jul-22 13:33N 58°56' E 011°10'1111.4
2014-Jul-22 12:33N 59°01' E 010°50'1717.2
2014-Jul-22 11:33N 59°01' E 010°17'6 6.3
2014-Jul-22 10:33N 59°08' E 010°14'6 6.2
2014-Jul-22 09:33N 59°02' E 010°17'1717.3
2014-Jul-22 08:33N 59°01' E 010°51'1111.5
2014-Jul-22 07:33N 58°56' E 011°10'8 8.1
2014-Jul-22 06:33N 59°00' E 010°57'1716.9
2014-Jul-22 05:33N 59°01' E 010°24'9 8.6
2014-Jul-22 04:33N 59°08' E 010°14'1 1.4
2014-Jul-22 03:33N 59°06' E 010°14'0 0.1
2014-Jul-22 02:33N 59°06' E 010°14'0 0.0
2014-Jul-22 01:33N 59°06' E 010°14'0 0.0
2014-Jul-22 00:33N 59°06' E 010°14'0 0.0
2014-Jul-21 23:33N 59°06' E 010°14'0 0.0
2014-Jul-21 22:33N 59°06' E 010°14'0 0.0
2014-Jul-21 21:33N 59°06' E 010°14'0 0.0
2014-Jul-21 20:34N 59°06' E 010°14'0 0.0
2014-Jul-21 20:18N 59°06' E 010°14'0 0.0
2014-Jul-21 19:33N 59°06' E 010°14'0 0.0
2014-Jul-21 18:33N 59°06' E 010°14'1 1.2
2014-Jul-21 17:33N 59°07' E 010°14'2 2.1
2014-Jul-21 16:33N 59°05' E 010°14'1414.0
2014-Jul-21 15:33N 59°01' E 010°41'1615.3
2014-Jul-21 14:32N 58°56' E 011°09'1 0.7
2014-Jul-21 13:33N 58°56' E 011°10'1312.8
2014-Jul-21 12:33N 59°02' E 010°48'1716.6
2014-Jul-21 11:33N 59°02' E 010°16'6 5.7
2014-Jul-21 10:33N 59°08' E 010°14'6 6.1
2014-Jul-21 09:33N 59°02' E 010°16'1717.4
2014-Jul-21 08:33N 59°01' E 010°50'1211.5
2014-Jul-21 07:33N 58°56' E 011°10'9 8.6
2014-Jul-21 06:33N 59°00' E 010°56'1716.7
2014-Jul-21 05:33N 59°01' E 010°23'8 8.5
2014-Jul-21 04:33N 59°08' E 010°14'1 1.4
2014-Jul-21 03:33N 59°06' E 010°14'0 0.1
2014-Jul-21 02:33N 59°06' E 010°14'0 0.0
2014-Jul-21 01:33N 59°06' E 010°14'0 0.0
2014-Jul-21 00:33N 59°06' E 010°14'0 0.0
2014-Jul-20 23:33N 59°06' E 010°14'0 0.0
2014-Jul-20 22:33N 59°06' E 010°14'0 0.0
2014-Jul-20 21:33N 59°06' E 010°14'0 0.0
2014-Jul-20 20:33N 59°06' E 010°14'0 0.0
2014-Jul-20 19:33N 59°06' E 010°14'0 0.0
2014-Jul-20 18:33N 59°06' E 010°14'1 1.1
2014-Jul-20 17:31N 59°07' E 010°14'2 1.6
2014-Jul-20 16:33N 59°06' E 010°14'1413.9
2014-Jul-20 15:33N 59°01' E 010°40'1615.6
2014-Jul-20 14:31N 58°56' E 011°10'0 0.2
2014-Jul-20 13:33N 58°56' E 011°10'1313.2
2014-Jul-20 12:33N 59°02' E 010°47'1616.5
2014-Jul-20 11:33N 59°02' E 010°15'6 5.5
2014-Jul-20 10:33N 59°08' E 010°14'6 6.0
2014-Jul-20 09:33N 59°02' E 010°16'1717.0
2014-Jul-20 08:33N 59°01' E 010°49'1212.1
2014-Jul-20 07:33N 58°56' E 011°10'8 8.4
2014-Jul-20 06:33N 59°00' E 010°56'1716.8
2014-Jul-20 05:33N 59°01' E 010°24'9 8.6
2014-Jul-20 04:33N 59°08' E 010°14'1 1.4
2014-Jul-20 03:33N 59°06' E 010°14'0 0.1
2014-Jul-20 02:33N 59°06' E 010°14'0 0.0
2014-Jul-20 01:33N 59°06' E 010°14'0 0.0
2014-Jul-20 00:33N 59°06' E 010°14'0 0.0
2014-Jul-19 23:33N 59°06' E 010°14'0 0.0
2014-Jul-19 22:33N 59°06' E 010°14'0 0.0
2014-Jul-19 21:33N 59°06' E 010°14'0 0.0
2014-Jul-19 20:33N 59°06' E 010°14'0 0.0
2014-Jul-19 19:33N 59°06' E 010°14'0 0.0
2014-Jul-19 18:33N 59°06' E 010°14'1 1.2
2014-Jul-19 17:33N 59°07' E 010°14'5 4.1
2014-Jul-19 16:23N 59°03' E 010°15'1315.8
2014-Jul-19 15:33N 59°01' E 010°41'1615.3
2014-Jul-19 14:31N 58°56' E 011°10'0 0.3
2014-Jul-19 13:33N 58°56' E 011°10'1211.7
2014-Jul-19 12:33N 59°01' E 010°50'1717.3
2014-Jul-19 11:33N 59°02' E 010°16'6 6.1
2014-Jul-19 10:33N 59°08' E 010°14'6 6.4
2014-Jul-19 09:33N 59°02' E 010°18'1716.7
2014-Jul-19 08:33N 59°01' E 010°50'1211.6
2014-Jul-19 07:33N 58°56' E 011°10'8 8.4
2014-Jul-19 06:33N 59°00' E 010°56'1717.4
2014-Jul-19 05:33N 59°01' E 010°22'8 8.1
2014-Jul-19 04:33N 59°08' E 010°14'1 1.4
2014-Jul-19 03:33N 59°06' E 010°14'0 0.1
2014-Jul-19 02:33N 59°06' E 010°14'0 0.0
2014-Jul-19 01:33N 59°06' E 010°14'0 0.0
2014-Jul-19 00:33N 59°06' E 010°14'0 0.0
2014-Jul-18 23:33N 59°06' E 010°14'0 0.0
2014-Jul-18 22:20N 59°06' E 010°14'0 0.0
2014-Jul-18 21:33N 59°06' E 010°14'0 0.0
2014-Jul-18 20:33N 59°06' E 010°14'0 0.0
2014-Jul-18 19:33N 59°06' E 010°14'0 0.0
2014-Jul-18 18:33N 59°06' E 010°14'1 1.3
2014-Jul-18 17:33N 59°07' E 010°14'16 7.9
2014-Jul-18 15:29N 59°02' E 010°43'2 0.6
2014-Jul-18 12:23N 59°02' E 010°47'1616.9
2014-Jul-18 11:25N 59°02' E 010°15'5 6.2
2014-Jul-18 10:33N 59°08' E 010°14'5 4.8
2014-Jul-18 09:34N 59°03' E 010°15'1716.7
2014-Jul-18 08:33N 59°02' E 010°48'1312.8
2014-Jul-18 07:33N 58°56' E 011°10'8 8.4
2014-Jul-18 06:33N 59°00' E 010°56'1717.0
2014-Jul-18 05:33N 59°01' E 010°23'8 8.4
2014-Jul-18 04:33N 59°08' E 010°14'1 1.4
2014-Jul-18 03:33N 59°06' E 010°14'0 0.1
2014-Jul-18 02:34N 59°06' E 010°14'0 0.0
2014-Jul-18 01:33N 59°06' E 010°14'0 0.0
2014-Jul-18 00:33N 59°06' E 010°14'0 0.0
2014-Jul-17 23:33N 59°06' E 010°14'0 0.0
2014-Jul-17 22:33N 59°06' E 010°14'0 0.0
2014-Jul-17 21:33N 59°06' E 010°14'0 0.0
2014-Jul-17 20:33N 59°06' E 010°14'0 0.0
2014-Jul-17 19:34N 59°06' E 010°14'0 0.0
2014-Jul-17 18:34N 59°06' E 010°14'1 1.1
2014-Jul-17 17:30N 59°07' E 010°14'2 2.6
2014-Jul-17 16:33N 59°05' E 010°15'1414.3
2014-Jul-17 15:33N 59°02' E 010°41'1615.1
2014-Jul-17 14:32N 58°56' E 011°10'0 0.2
2014-Jul-17 13:34N 58°56' E 011°10'1313.3
2014-Jul-17 12:33N 59°02' E 010°47'1616.4
2014-Jul-17 11:33N 59°03' E 010°15'5 5.0
2014-Jul-17 10:33N 59°08' E 010°14'6 5.9
2014-Jul-17 09:33N 59°02' E 010°16'1716.8
2014-Jul-17 08:33N 59°02' E 010°48'1312.6
2014-Jul-17 07:33N 58°56' E 011°10'8 7.9
2014-Jul-17 06:33N 59°00' E 010°57'1716.9
2014-Jul-17 05:33N 59°01' E 010°24'9 8.8
2014-Jul-17 04:33N 59°08' E 010°14'1 1.4
2014-Jul-17 03:33N 59°06' E 010°14'0 0.0
2014-Jul-17 02:33N 59°06' E 010°14'0 0.0
2014-Jul-17 01:33N 59°06' E 010°14'0 0.0
2014-Jul-17 00:33N 59°06' E 010°14'0 0.0
2014-Jul-16 23:33N 59°06' E 010°14'0 0.0
2014-Jul-16 22:32N 59°06' E 010°14'0 0.0
2014-Jul-16 21:31N 59°06' E 010°14'0 0.0
2014-Jul-16 20:33N 59°06' E 010°14'0 0.0
2014-Jul-16 19:33N 59°06' E 010°14'0 0.0
2014-Jul-16 18:27N 59°06' E 010°14'1 1.5
2014-Jul-16 17:32N 59°08' E 010°14'3 2.6
2014-Jul-16 16:33N 59°05' E 010°15'1414.4
2014-Jul-16 15:33N 59°02' E 010°42'1614.3
2014-Jul-16 14:28N 58°56' E 011°10'3 2.7
2014-Jul-16 13:21N 58°56' E 011°04'1316.0
2014-Jul-16 12:33N 59°01' E 010°42'1413.7
2014-Jul-16 11:30N 59°05' E 010°15'3 2.9
2014-Jul-16 10:33N 59°08' E 010°14'6 6.3
2014-Jul-16 09:33N 59°02' E 010°17'1717.2
2014-Jul-16 08:33N 59°01' E 010°51'1111.3
2014-Jul-16 07:33N 58°56' E 011°10'10 9.6
2014-Jul-16 06:33N 59°01' E 010°54'1616.5
2014-Jul-16 05:33N 59°01' E 010°22'8 8.2
2014-Jul-16 04:34N 59°08' E 010°14'1 1.4
2014-Jul-16 03:33N 59°06' E 010°14'0 0.1
2014-Jul-16 02:33N 59°06' E 010°14'0 0.0
2014-Jul-16 01:33N 59°06' E 010°14'0 0.0
2014-Jul-16 00:33N 59°06' E 010°14'0 0.0
2014-Jul-15 23:33N 59°06' E 010°14'0 0.0
2014-Jul-15 22:33N 59°06' E 010°14'0 0.0
2014-Jul-15 21:33N 59°06' E 010°14'0 0.0
2014-Jul-15 20:33N 59°06' E 010°14'0 0.0
2014-Jul-15 19:33N 59°06' E 010°14'0 0.0
2014-Jul-15 18:33N 59°06' E 010°14'1 1.3
2014-Jul-15 17:30N 59°08' E 010°14'4 4.1
2014-Jul-15 16:33N 59°04' E 010°15'1514.9
2014-Jul-15 15:33N 59°02' E 010°44'1514.3
2014-Jul-15 14:31N 58°56' E 011°10'1 0.7
2014-Jul-15 13:31N 58°56' E 011°09'1515.9
2014-Jul-15 12:33N 59°01' E 010°41'1514.3
2014-Jul-15 11:31N 59°06' E 010°14'1 1.4
2014-Jul-15 10:33N 59°08' E 010°14'8 7.7
2014-Jul-15 09:33N 59°01' E 010°22'1514.9
2014-Jul-15 08:33N 59°01' E 010°51'1111.4
2014-Jul-15 07:33N 58°56' E 011°10'7 7.3
2014-Jul-15 06:33N 58°60' E 010°58'1817.7
2014-Jul-15 05:33N 59°01' E 010°24'9 8.6
2014-Jul-15 04:33N 59°08' E 010°14'1 1.4
2014-Jul-15 03:33N 59°06' E 010°14'0 0.0
2014-Jul-15 01:26N 59°06' E 010°14'0 0.0
2014-Jul-15 00:09N 59°06' E 010°14'0 0.0
2014-Jul-14 23:27N 59°06' E 010°14'0 0.0
2014-Jul-14 22:28N 59°06' E 010°14'0 0.0
2014-Jul-14 21:11N 59°06' E 010°14'0 0.0
2014-Jul-14 20:32N 59°06' E 010°14'  

Dump ship's entire track history